You are not logged in, Click here to log in
臺北松山機場TSA / RCSS 臺北市松山區敦化北路340-9號
ICAO: RCSS Country: 臺北市松山區敦化北路340-9號
Latitude: 25.0676 Longitude: 121.553
Total Arrivals: 331 Total Departures: 298
Latest Arrival: AE5569 (RCKH-RCSS)CHU. CHUHAO Latest Departure: GE507 (RCSS-RCQC)KE. CHIH-HAO
Scenery:
METAR : RCSS 071200Z 10008KT 9999 FEW020 SCT040 30/26 Q1007 NOSIG RMK A2975

臺北松山機場TSA